hwlogo.jpg (8581 bytes)
Home Your Weather Products Services Weather On Your Site Contact
HW Version Logo
Weather Info
Your Weather (Options)
Canadian Weather
International Weather
Enter your " Place, State", US Zip Code or ICAO:  
Forecast Information Radar Information
Kapuskasing, Ontario, Canada  Lat: 49.42N, Lon: 82.45W
ICAO Used: CYYU
Current Conditions
Updated: 2:43 AM EST MON FEB 19 2018
Sun & Moon Information
Light Snow
Light Snow
Temp: -13°C
Humidity: 84%
Wind Speed: NNE 12 MPH
Barometer: 1013 mb
Dewpoint: -15°C
Heat Index: -13°C
Wind Chill: -22°C
Civil Twilight: 7:01 AM EST Moon Phase:
Waxing Crescent Moon
Sunrise: 7:34 AM EST
Sunset: 5:52 PM EST
Civil Twilight: 6:25 PM EST
Forecast for Kapuskasing, ON:
(Forecast based on TAF for )
0342 AM EST MON FEB 19 2018
  
OVERNIGHT MORNING AFTERNOON
Light
Snow
Light
Snow
Light
Snow
ZoneCast:
Dated: 0342 AM EST MON FEB 19 2018
Overnight...Light snow with winds from the northnortheast at 9 mph.

Morning...Light snow with winds from the northnortheast at 9 mph.

Afternoon...Overcast and light snow with winds from the northeast at 12 mph and gusts up to 23 mph.

Original Encoded TAF:
Dated: 0342 AM EST MON FEB 19 2018
2018/02/19 08:42
TAF CYYU 190739Z 1908/1920 02008KT 3/4SM -SN VV012 
      TEMPO 1908/1912 3SM -SN 
     FM191200 03010G20KT 2SM -SN OVC012 
      TEMPO 1912/1916 6SM -SN 
     FM191600 03010G20KT 6SM -SN OVC020 
      RMK NXT FCST BY 191400Z